Time;durP1;ratioP1;P1;durP2;ratioP2;P2;SDS_P1;SDS_P2;PMS_P1;PMS_P2;Temp;Humidity;BMP_temperature;BMP_pressure;BME280_temperature;BME280_humidity;BME280_pressure;Samples;Min_cycle;Max_cycle;Signal;HPM_P1;HPM_P2
2023/09/09 00:00:30;;;;;;;;;;;;;;;19.37;100.00;101663.59;5035935;28;19919;-73
2023/09/09 00:02:55;;;;;;;;;;;;;;;19.36;100.00;101661.88;5037737;28;20000;-74
2023/09/09 00:05:20;;;;;;;;;;;;;;;19.35;100.00;101665.47;5036078;28;19912;-74
2023/09/09 00:07:45;;;;;;;;;;;;;;;19.34;100.00;101669.09;5036504;28;19939;-74
2023/09/09 00:10:11;;;;;;;;;;;;;;;19.30;100.00;101667.59;5035256;28;20165;-74
2023/09/09 00:12:36;;;;;;;;;;;;;;;19.26;100.00;101668.72;5035211;28;19920;-74
2023/09/09 00:15:08;;;;;;;;;;;;;;;19.23;100.00;101663.63;5036193;28;19917;-74
2023/09/09 00:17:33;;;;;;;;;;;;;;;19.19;100.00;101662.09;5033218;28;20268;-74
2023/09/09 00:19:59;;;;;;;;;;;;;;;19.11;100.00;101665.25;5035400;28;20090;-73
2023/09/09 00:22:24;;;;;;;;;;;;;;;19.06;100.00;101669.16;5030652;28;20227;-73
2023/09/09 00:24:49;;;;;;;;;;;;;;;19.01;100.00;101652.66;5037104;28;19917;-73
2023/09/09 00:27:14;;;;;;;;;;;;;;;18.92;100.00;101656.75;5037022;28;19944;-73
2023/09/09 00:29:40;;;;;;;;;;;;;;;18.89;100.00;101668.41;5036744;28;20193;-74
2023/09/09 00:32:05;;;;;;;;;;;;;;;18.88;100.00;101665.84;5036988;28;20167;-74
2023/09/09 00:34:33;;;;;;;;;;;;;;;18.84;100.00;101659.03;5036602;28;19921;-74
2023/09/09 00:36:58;;;;;;;;;;;;;;;18.81;100.00;101660.09;5037278;28;20032;-74
2023/09/09 00:39:23;;;;;;;;;;;;;;;18.82;100.00;101659.13;5036842;28;19980;-74
2023/09/09 00:41:49;;;;;;;;;;;;;;;18.82;100.00;101655.63;5036814;28;19921;-74
2023/09/09 00:44:14;;;;;;;;;;;;;;;18.81;100.00;101649.47;5037351;28;19917;-74
2023/09/09 00:46:39;;;;;;;;;;;;;;;18.82;100.00;101655.63;5035769;28;20202;-74
2023/09/09 00:49:05;;;;;;;;;;;;;;;18.79;100.00;101648.66;5037273;28;20162;-73
2023/09/09 00:51:30;;;;;;;;;;;;;;;18.74;100.00;101643.66;5036425;28;19925;-74
2023/09/09 00:53:56;;;;;;;;;;;;;;;18.70;100.00;101641.28;5036787;28;19980;-74
2023/09/09 00:56:21;;;;;;;;;;;;;;;18.67;100.00;101639.69;5035773;28;19971;-74
2023/09/09 00:58:46;;;;;;;;;;;;;;;18.66;100.00;101645.06;5036916;28;19939;-74
2023/09/09 01:01:12;;;;;;;;;;;;;;;18.65;100.00;101646.03;5036717;28;19980;-74
2023/09/09 01:03:37;;;;;;;;;;;;;;;18.63;100.00;101647.91;5036152;28;19920;-74
2023/09/09 01:06:03;;;;;;;;;;;;;;;18.60;100.00;101647.16;5036658;28;19904;-74
2023/09/09 01:08:30;;;;;;;;;;;;;;;18.56;100.00;101640.34;5035760;28;20117;-74
2023/09/09 01:10:56;;;;;;;;;;;;;;;18.53;100.00;101644.97;5036576;28;19909;-74
2023/09/09 01:13:21;;;;;;;;;;;;;;;18.52;100.00;101637.97;5035915;28;20256;-74
2023/09/09 01:15:47;;;;;;;;;;;;;;;18.50;100.00;101648.69;5036154;28;19917;-74
2023/09/09 01:18:12;;;;;;;;;;;;;;;18.48;100.00;101642.63;5036146;28;19916;-74
2023/09/09 01:20:39;;;;;;;;;;;;;;;18.47;100.00;101642.72;5035887;28;19919;-74
2023/09/09 01:23:04;;;;;;;;;;;;;;;18.42;100.00;101638.53;5036072;28;19920;-74
2023/09/09 01:25:29;;;;;;;;;;;;;;;18.38;100.00;101644.13;5035182;28;20012;-74
2023/09/09 01:27:55;;;;;;;;;;;;;;;18.35;100.00;101642.50;5035184;28;19963;-74
2023/09/09 01:30:20;;;;;;;;;;;;;;;18.35;100.00;101639.00;5035322;28;19952;-74
2023/09/09 01:32:45;;;;;;;;;;;;;;;18.35;100.00;101642.50;5035806;28;19923;-74
2023/09/09 01:35:11;;;;;;;;;;;;;;;18.35;100.00;101636.34;5035968;28;20251;-74
2023/09/09 01:37:36;;;;;;;;;;;;;;;18.28;100.00;101637.66;5034896;28;20256;-74
2023/09/09 01:40:05;;;;;;;;;;;;;;;18.21;100.00;101635.41;5035956;28;19916;-74
2023/09/09 01:42:31;;;;;;;;;;;;;;;18.19;100.00;101631.13;5035297;28;20234;-74
2023/09/09 01:44:56;;;;;;;;;;;;;;;18.17;100.00;101638.31;5035967;28;19912;-74
2023/09/09 01:47:21;;;;;;;;;;;;;;;18.14;100.00;101634.06;5034959;28;20298;-74
2023/09/09 01:49:46;;;;;;;;;;;;;;;18.11;100.00;101639.53;5035615;28;19955;-74
2023/09/09 01:52:12;;;;;;;;;;;;;;;18.10;100.00;101637.84;5035257;28;20215;-74
2023/09/09 01:54:37;;;;;;;;;;;;;;;18.10;100.00;101637.84;5035124;28;20120;-74
2023/09/09 01:57:02;;;;;;;;;;;;;;;18.08;100.00;101638.88;5035686;28;20204;-74
2023/09/09 01:59:28;;;;;;;;;;;;;;;18.08;100.00;101645.03;5034160;28;20259;-74
2023/09/09 02:01:53;;;;;;;;;;;;;;;18.03;100.00;101639.16;5035277;28;19996;-74
2023/09/09 02:04:18;;;;;;;;;;;;;;;17.98;100.00;101642.06;5035243;28;20066;-74
2023/09/09 02:06:44;;;;;;;;;;;;;;;17.96;100.00;101643.09;5035339;28;19988;-74
2023/09/09 02:09:10;;;;;;;;;;;;;;;17.97;100.00;101645.66;5034822;28;20124;-74
2023/09/09 02:11:35;;;;;;;;;;;;;;;17.97;100.00;101647.44;5035003;28;19917;-74
2023/09/09 02:14:00;;;;;;;;;;;;;;;17.96;100.00;101641.31;5035110;28;20211;-74
2023/09/09 02:16:25;;;;;;;;;;;;;;;17.94;100.00;101645.84;5034729;28;20207;-74
2023/09/09 02:18:51;;;;;;;;;;;;;;;17.95;100.00;101639.59;5035162;28;19988;-74
2023/09/09 02:21:16;;;;;;;;;;;;;;;17.89;100.00;101644.41;5034497;28;19955;-74
2023/09/09 02:23:42;;;;;;;;;;;;;;;17.89;100.00;101639.97;5034873;28;20116;-74
2023/09/09 02:26:08;;;;;;;;;;;;;;;17.89;100.00;101639.13;5035208;28;20113;-74
2023/09/09 02:28:34;;;;;;;;;;;;;;;17.90;100.00;101639.03;5034163;28;19956;-74
2023/09/09 02:31:00;;;;;;;;;;;;;;;17.92;100.00;101631.84;5034930;28;19924;-74
2023/09/09 02:33:25;;;;;;;;;;;;;;;17.92;100.00;101628.31;5034544;28;19917;-74
2023/09/09 02:35:50;;;;;;;;;;;;;;;17.93;100.00;101625.56;5034553;28;20119;-74
2023/09/09 02:38:16;;;;;;;;;;;;;;;17.96;100.00;101625.41;5034741;28;20120;-74
2023/09/09 02:40:41;;;;;;;;;;;;;;;17.98;100.00;101622.66;5034801;28;20231;-74
2023/09/09 02:43:06;;;;;;;;;;;;;;;17.99;100.00;101621.72;5035326;28;19921;-74
2023/09/09 02:45:31;;;;;;;;;;;;;;;18.00;100.00;101626.06;5034573;28;19912;-74
2023/09/09 02:47:57;;;;;;;;;;;;;;;18.01;100.00;101623.34;5035235;28;19914;-74
2023/09/09 02:50:23;;;;;;;;;;;;;;;18.02;100.00;101622.38;5034142;28;19916;-74
2023/09/09 02:52:48;;;;;;;;;;;;;;;18.04;100.00;101617.00;5034621;28;19913;-74
2023/09/09 02:55:13;;;;;;;;;;;;;;;18.03;100.00;101620.59;5035151;28;19924;-73
2023/09/09 02:57:39;;;;;;;;;;;;;;;18.01;100.00;101611.91;5034211;28;19913;-73
2023/09/09 03:00:06;;;;;;;;;;;;;;;18.02;100.00;101610.94;5035084;28;20231;-73
2023/09/09 03:02:31;;;;;;;;;;;;;;;18.03;100.00;101616.16;5034095;28;19928;-73
2023/09/09 03:04:57;;;;;;;;;;;;;;;18.03;100.00;101617.94;5034605;28;19931;-73
2023/09/09 03:07:22;;;;;;;;;;;;;;;18.03;100.00;101616.16;5033945;28;19905;-73
2023/09/09 03:09:47;;;;;;;;;;;;;;;18.05;100.00;101615.22;5036387;28;19921;-73
2023/09/09 03:12:13;;;;;;;;;;;;;;;18.02;100.00;101619.72;5038860;28;19943;-73
2023/09/09 03:14:38;;;;;;;;;;;;;;;18.02;100.00;101617.06;5038041;28;19954;-73
2023/09/09 03:17:03;;;;;;;;;;;;;;;18.02;100.00;101618.88;5038687;28;19950;-73
2023/09/09 03:19:28;;;;;;;;;;;;;;;18.02;100.00;101619.72;5037324;28;19916;-73
2023/09/09 03:21:54;;;;;;;;;;;;;;;18.02;100.00;101624.19;5038077;28;20115;-73
2023/09/09 03:24:19;;;;;;;;;;;;;;;18.02;100.00;101625.03;5037618;28;19917;-73
2023/09/09 03:26:44;;;;;;;;;;;;;;;18.03;100.00;101617.94;5038171;28;19923;-73
2023/09/09 03:29:09;;;;;;;;;;;;;;;18.02;100.00;101622.38;5038207;28;19923;-73
2023/09/09 03:31:35;;;;;;;;;;;;;;;18.01;100.00;101626.00;5037660;28;19920;-73
2023/09/09 03:34:00;;;;;;;;;;;;;;;18.01;100.00;101617.19;5038138;28;20318;-73
2023/09/09 03:36:25;;;;;;;;;;;;;;;18.00;100.00;101618.13;5037913;28;19917;-73
2023/09/09 03:38:50;;;;;;;;;;;;;;;18.01;100.00;101617.19;5037431;28;20071;-73
2023/09/09 03:41:16;;;;;;;;;;;;;;;18.02;100.00;101619.72;5038248;28;19953;-73
2023/09/09 03:43:41;;;;;;;;;;;;;;;18.03;100.00;101623.25;5036219;28;19917;-73
2023/09/09 03:46:06;;;;;;;;;;;;;;;18.02;100.00;101613.59;5037738;28;19924;-73
2023/09/09 03:48:32;;;;;;;;;;;;;;;18.02;100.00;101621.53;5036933;28;19921;-73
2023/09/09 03:51:01;;;;;;;;;;;;;;;18.00;100.00;101624.28;5037930;28;20135;-73
2023/09/09 03:53:26;;;;;;;;;;;;;;;17.93;100.00;101620.28;5037072;28;19916;-73
2023/09/09 03:55:52;;;;;;;;;;;;;;;17.93;100.00;101622.94;5028766;28;19980;-73
2023/09/09 03:58:17;;;;;;;;;;;;;;;17.95;100.00;101630.78;5036628;28;19992;-73
2023/09/09 04:00:42;;;;;;;;;;;;;;;17.92;100.00;101637.13;5037502;28;19939;-73
2023/09/09 04:03:07;;;;;;;;;;;;;;;17.91;100.00;101634.56;5037550;28;20204;-73
2023/09/09 04:05:33;;;;;;;;;;;;;;;17.88;100.00;101637.38;5037171;28;20257;-73
2023/09/09 04:08:03;;;;;;;;;;;;;;;17.86;100.00;101626.88;5037139;28;19947;-73
2023/09/09 04:10:28;;;;;;;;;;;;;;;17.88;100.00;101629.44;5036557;28;19983;-73
2023/09/09 04:12:53;;;;;;;;;;;;;;;17.85;100.00;101633.13;5037485;28;20400;-73
2023/09/09 04:15:18;;;;;;;;;;;;;;;17.83;100.00;101622.59;5036342;28;19920;-73
2023/09/09 04:17:44;;;;;;;;;;;;;;;17.83;100.00;101633.19;5037003;28;19913;-73
2023/09/09 04:20:09;;;;;;;;;;;;;;;17.85;100.00;101638.44;5033948;28;19908;-73
2023/09/09 04:22:34;;;;;;;;;;;;;;;17.84;100.00;101639.34;5035334;28;19940;-73
2023/09/09 04:25:00;;;;;;;;;;;;;;;17.84;100.00;101631.38;5036390;28;19999;-73
2023/09/09 04:27:25;;;;;;;;;;;;;;;17.82;100.00;101631.47;5035636;28;19983;-73
2023/09/09 04:29:50;;;;;;;;;;;;;;;17.82;100.00;101636.78;5037474;28;19916;-73
2023/09/09 04:32:16;;;;;;;;;;;;;;;17.82;100.00;101642.06;5036873;28;20317;-73
2023/09/09 04:34:41;;;;;;;;;;;;;;;17.81;100.00;101636.88;5035514;28;19924;-73
2023/09/09 04:37:06;;;;;;;;;;;;;;;17.82;100.00;101634.13;5035320;28;19995;-73
2023/09/09 04:39:31;;;;;;;;;;;;;;;17.83;100.00;101635.00;5033814;28;20002;-73
2023/09/09 04:41:57;;;;;;;;;;;;;;;17.81;100.00;101632.44;5034806;28;20155;-73
2023/09/09 04:44:22;;;;;;;;;;;;;;;17.78;100.00;101645.84;5034126;28;19917;-73
2023/09/09 04:46:47;;;;;;;;;;;;;;;17.75;100.00;101647.81;5034765;28;19940;-73
2023/09/09 04:49:13;;;;;;;;;;;;;;;17.73;100.00;101645.25;5035289;28;19913;-73
2023/09/09 04:51:38;;;;;;;;;;;;;;;17.76;100.00;101649.53;5017327;28;19917;-73
2023/09/09 04:54:03;;;;;;;;;;;;;;;17.76;100.00;101642.44;5036632;28;19945;-73
2023/09/09 04:56:29;;;;;;;;;;;;;;;17.77;100.00;101645.94;5035902;28;20130;-73
2023/09/09 04:58:54;;;;;;;;;;;;;;;17.78;100.00;101647.66;5036770;28;19959;-73
2023/09/09 05:01:20;;;;;;;;;;;;;;;17.77;100.00;101648.59;5035453;28;19923;-73
2023/09/09 05:03:45;;;;;;;;;;;;;;;17.76;100.00;101650.38;5036701;28;19920;-73
2023/09/09 05:06:10;;;;;;;;;;;;;;;17.76;100.00;101652.19;5036091;28;19917;-73
2023/09/09 05:08:35;;;;;;;;;;;;;;;17.75;100.00;101653.13;5035561;28;19919;-73
2023/09/09 05:11:01;;;;;;;;;;;;;;;17.72;100.00;101655.94;5042915;28;19927;-73
2023/09/09 05:13:26;;;;;;;;;;;;;;;17.72;100.00;101661.22;5035638;28;19924;-73
2023/09/09 05:15:51;;;;;;;;;;;;;;;17.70;100.00;101661.34;5036205;28;19984;-73
2023/09/09 05:18:17;;;;;;;;;;;;;;;17.69;100.00;101656.97;5035791;28;19921;-73
2023/09/09 05:20:43;;;;;;;;;;;;;;;17.70;100.00;101661.34;5035691;28;19917;-73
2023/09/09 05:23:08;;;;;;;;;;;;;;;17.69;100.00;101654.34;5036053;28;19963;-73
2023/09/09 05:25:33;;;;;;;;;;;;;;;17.69;100.00;101656.13;5035668;28;19991;-73
2023/09/09 05:27:58;;;;;;;;;;;;;;;17.68;100.00;101659.72;5036075;28;19912;-73
2023/09/09 05:30:24;;;;;;;;;;;;;;;17.67;100.00;101655.38;5035697;28;19917;-73
2023/09/09 05:32:49;;;;;;;;;;;;;;;17.66;100.00;101649.19;5034894;28;20314;-73
2023/09/09 05:35:14;;;;;;;;;;;;;;;17.64;100.00;101651.09;5036083;28;19944;-73
2023/09/09 05:37:40;;;;;;;;;;;;;;;17.64;100.00;101656.38;5035538;28;19972;-73
2023/09/09 05:40:06;;;;;;;;;;;;;;;17.63;100.00;101655.53;5035530;28;19939;-73
2023/09/09 05:42:31;;;;;;;;;;;;;;;17.61;100.00;101651.28;5035267;28;20290;-73
2023/09/09 05:44:56;;;;;;;;;;;;;;;17.60;100.00;101658.34;5035998;28;20111;-73
2023/09/09 05:47:22;;;;;;;;;;;;;;;17.59;100.00;101654.03;5035242;28;19916;-73
2023/09/09 05:49:47;;;;;;;;;;;;;;;17.59;100.00;101661.09;5035503;28;19917;-73
2023/09/09 05:52:12;;;;;;;;;;;;;;;17.57;100.00;101661.19;5035701;28;19917;-73
2023/09/09 05:54:38;;;;;;;;;;;;;;;17.56;100.00;101667.44;5035128;28;20097;-73
2023/09/09 05:57:03;;;;;;;;;;;;;;;17.54;100.00;101656.06;5035113;28;19924;-73
2023/09/09 05:59:29;;;;;;;;;;;;;;;17.53;100.00;101670.25;5034821;28;20232;-73
2023/09/09 06:01:54;;;;;;;;;;;;;;;17.54;100.00;101663.16;5035628;28;19921;-73
2023/09/09 06:04:19;;;;;;;;;;;;;;;17.54;100.00;101666.66;5035399;28;19913;-73
2023/09/09 06:06:45;;;;;;;;;;;;;;;17.57;100.00;101670.91;5035054;28;19945;-73
2023/09/09 06:09:10;;;;;;;;;;;;;;;17.58;100.00;101676.13;5035116;28;19921;-73
2023/09/09 06:11:35;;;;;;;;;;;;;;;17.58;100.00;101668.19;5035039;28;20224;-73
2023/09/09 06:14:01;;;;;;;;;;;;;;;17.61;100.00;101667.19;5035397;28;20108;-73
2023/09/09 06:16:26;;;;;;;;;;;;;;;17.65;100.00;101674.00;5021522;28;19916;-73
2023/09/09 06:18:51;;;;;;;;;;;;;;;17.70;100.00;101677.25;5015792;28;20102;-73
2023/09/09 06:21:16;;;;;;;;;;;;;;;17.74;100.00;101678.75;5023663;28;19944;-73
2023/09/09 06:23:42;;;;;;;;;;;;;;;17.74;100.00;101676.13;5034929;28;19916;-73
2023/09/09 06:26:07;;;;;;;;;;;;;;;17.77;100.00;101673.31;5034951;28;20200;-73
2023/09/09 06:28:33;;;;;;;;;;;;;;;17.80;100.00;101674.91;5034877;28;19911;-73
2023/09/09 06:30:58;;;;;;;;;;;;;;;17.81;100.00;101682.78;5034901;28;19908;-73
2023/09/09 06:33:24;;;;;;;;;;;;;;;17.84;100.00;101685.25;5034637;28;20115;-73
2023/09/09 06:35:49;;;;;;;;;;;;;;;17.87;100.00;101684.25;5034437;28;20243;-73
2023/09/09 06:38:15;;;;;;;;;;;;;;;17.89;100.00;101682.34;5034280;28;20224;-73
2023/09/09 06:40:42;;;;;;;;;;;;;;;17.93;100.00;101693.63;5033716;28;20205;-73
2023/09/09 06:43:07;;;;;;;;;;;;;;;17.97;100.00;101697.81;5034959;28;19921;-73
2023/09/09 06:45:33;;;;;;;;;;;;;;;18.00;100.00;101700.28;5037439;28;20030;-73
2023/09/09 06:47:58;;;;;;;;;;;;;;;18.03;100.00;101697.47;5039242;28;20129;-73
2023/09/09 06:50:23;;;;;;;;;;;;;;;18.08;100.00;101705.13;5038385;28;19952;-73
2023/09/09 06:52:48;;;;;;;;;;;;;;;18.12;100.00;101706.66;5039085;28;19980;-73
2023/09/09 06:55:14;;;;;;;;;;;;;;;18.15;100.00;101706.47;5038727;28;20120;-73
2023/09/09 06:57:39;;;;;;;;;;;;;;;18.19;100.00;101700.03;5038241;28;20215;-73
2023/09/09 07:00:05;;;;;;;;;;;;;;;18.23;100.00;101702.44;5039006;28;20271;-73
2023/09/09 07:02:30;;;;;;;;;;;;;;;18.28;100.00;101703.94;5038571;28;20165;-73
2023/09/09 07:04:55;;;;;;;;;;;;;;;18.32;100.00;101710.78;5038747;28;19920;-73
2023/09/09 07:07:21;;;;;;;;;;;;;;;18.34;100.00;101700.94;5038236;28;19923;-73
2023/09/09 07:09:46;;;;;;;;;;;;;;;18.38;100.00;101700.66;5038423;28;19925;-73
2023/09/09 07:12:11;;;;;;;;;;;;;;;18.44;100.00;101704.75;5038611;28;20178;-73
2023/09/09 07:14:36;;;;;;;;;;;;;;;18.49;100.00;101701.81;5020627;28;20104;-73
2023/09/09 07:17:03;;;;;;;;;;;;;;;18.53;100.00;101706.00;5038449;28;19959;-73
2023/09/09 07:19:28;;;;;;;;;;;;;;;18.58;100.00;101714.53;5038229;28;20199;-73
2023/09/09 07:21:54;;;;;;;;;;;;;;;18.61;100.00;101711.69;5038353;28;19955;-73
2023/09/09 07:24:19;;;;;;;;;;;;;;;18.65;100.00;101707.06;5038024;28;19917;-73
2023/09/09 07:26:44;;;;;;;;;;;;;;;18.70;100.00;101713.78;5038494;28;20290;-73
2023/09/09 07:29:09;;;;;;;;;;;;;;;18.76;100.00;101713.41;5038310;28;20211;-73
2023/09/09 07:31:35;;;;;;;;;;;;;;;18.82;100.00;101714.00;5037478;28;20085;-73
2023/09/09 07:34:00;;;;;;;;;;;;;;;18.87;100.00;101711.94;5037449;28;19947;-73
2023/09/09 07:36:25;;;;;;;;;;;;;;;18.93;100.00;101720.34;5037405;28;20123;-73
2023/09/09 07:38:51;;;;;;;;;;;;;;;18.99;100.00;101717.31;5026972;28;20252;-73
2023/09/09 07:41:16;;;;;;;;;;;;;;;19.09;100.00;101716.75;5031549;28;19917;-73
2023/09/09 07:43:42;;;;;;;;;;;;;;;19.12;100.00;101713.91;5037455;28;20258;-73
2023/09/09 07:46:08;;;;;;;;;;;;;;;19.17;100.00;101720.63;5018076;28;19917;-73
2023/09/09 07:48:33;;;;;;;;;;;;;;;19.24;100.00;101720.22;5032420;28;19913;-73
2023/09/09 07:50:59;;;;;;;;;;;;;;;19.32;100.00;101723.28;5038012;28;20144;-73
2023/09/09 07:53:24;;;;;;;;;;;;;;;19.35;100.00;101723.91;5037062;28;20209;-73
2023/09/09 07:55:50;;;;;;;;;;;;;;;19.41;100.00;101713.84;5036055;28;19999;-73
2023/09/09 07:58:16;;;;;;;;;;;;;;;19.45;100.00;101721.53;5037540;28;19904;-73
2023/09/09 08:00:41;;;;;;;;;;;;;;;19.47;100.00;101722.28;5037512;28;20216;-73
2023/09/09 08:03:10;;;;;;;;;;;;;;;19.49;100.00;101714.22;5037327;28;19994;-73
2023/09/09 08:05:36;;;;;;;;;;;;;;;19.50;100.00;101715.91;5037088;28;19913;-73
2023/09/09 08:08:02;;;;;;;;;;;;;;;19.53;100.00;101715.72;5037694;28;19997;-73
2023/09/09 08:10:27;;;;;;;;;;;;;;;19.60;100.00;101718.84;5037084;28;20278;-73
2023/09/09 08:12:52;;;;;;;;;;;;;;;19.64;100.00;101720.31;5037095;28;20231;-73
2023/09/09 08:15:18;;;;;;;;;;;;;;;19.67;100.00;101717.47;5018849;28;20186;-73
2023/09/09 08:17:43;;;;;;;;;;;;;;;19.69;100.00;101716.41;5037273;28;19940;-73
2023/09/09 08:20:08;;;;;;;;;;;;;;;19.72;100.00;101724.19;5037793;28;20235;-73
2023/09/09 08:22:34;;;;;;;;;;;;;;;19.73;100.00;101723.25;5036060;28;19921;-73
2023/09/09 08:25:00;;;;;;;;;;;;;;;19.74;100.00;101722.31;5037010;28;19955;-73
2023/09/09 08:27:25;;;;;;;;;;;;;;;19.77;100.00;101725.72;5036547;28;19968;-73
2023/09/09 08:29:50;;;;;;;;;;;;;;;19.78;100.00;101724.78;5037237;28;19948;-73
2023/09/09 08:32:15;;;;;;;;;;;;;;;19.79;100.00;101726.47;5037041;28;19983;-73
2023/09/09 08:34:41;;;;;;;;;;;;;;;19.82;100.00;101735.09;5036366;28;20204;-73
2023/09/09 08:37:07;;;;;;;;;;;;;;;19.83;100.00;101735.94;5036699;28;19952;-73
2023/09/09 08:39:32;;;;;;;;;;;;;;;19.85;100.00;101732.25;5036071;28;20204;-73
2023/09/09 08:42:02;;;;;;;;;;;;;;;19.87;100.00;101738.31;5036611;28;20068;-73
2023/09/09 08:44:36;;;;;;;;;;;;;;;19.90;100.00;101746.09;5017882;28;20131;-73
2023/09/09 08:47:02;;;;;;;;;;;;;;;19.92;100.00;101746.84;5036645;28;19916;-73
2023/09/09 08:49:28;;;;;;;;;;;;;;;19.96;100.00;101746.66;5036286;28;20127;-73
2023/09/09 08:51:55;;;;;;;;;;;;;;;20.01;100.00;101752.50;5036788;28;19904;-73
2023/09/09 08:54:21;;;;;;;;;;;;;;;20.07;100.00;101747.63;5036228;28;19917;-73
2023/09/09 08:56:47;;;;;;;;;;;;;;;20.13;99.97;101746.38;5036163;28;20226;-73
2023/09/09 08:59:12;;;;;;;;;;;;;;;20.17;99.34;101745.19;5035693;28;19976;-73
2023/09/09 09:01:39;;;;;;;;;;;;;;;20.21;99.02;101744.06;5034716;28;20150;-73
2023/09/09 09:04:04;;;;;;;;;;;;;;;20.28;98.61;101749.78;5034972;28;19925;-73
2023/09/09 09:06:29;;;;;;;;;;;;;;;20.36;98.11;101757.28;5035058;28;20200;-73
2023/09/09 09:08:55;;;;;;;;;;;;;;;20.42;97.92;101756.84;5028793;28;19983;-73
2023/09/09 09:11:20;;;;;;;;;;;;;;;20.48;97.34;101757.31;5033349;28;20246;-73
2023/09/09 09:13:47;;;;;;;;;;;;;;;20.54;96.72;101758.69;5035452;28;20173;-73
2023/09/09 09:16:12;;;;;;;;;;;;;;;20.59;96.50;101758.34;5035253;28;19976;-73
2023/09/09 09:18:38;;;;;;;;;;;;;;;20.63;96.11;101763.41;5034575;28;19917;-73
2023/09/09 09:21:07;;;;;;;;;;;;;;;20.71;96.88;101760.22;5017049;28;19916;-73
2023/09/09 09:23:32;;;;;;;;;;;;;;;20.78;95.03;101761.50;5034191;28;19912;-73
2023/09/09 09:25:57;;;;;;;;;;;;;;;20.90;92.69;101765.09;5034994;28;19927;-73
2023/09/09 09:28:27;;;;;;;;;;;;;;;21.00;91.49;101768.00;5034108;28;19955;-73
2023/09/09 09:30:52;;;;;;;;;;;;;;;21.08;91.32;101765.63;5034825;28;19913;-73
2023/09/09 09:33:22;;;;;;;;;;;;;;;21.18;91.93;101765.84;5034267;28;19936;-73
2023/09/09 09:35:48;;;;;;;;;;;;;;;21.24;91.85;101760.06;5034731;28;20208;-73
2023/09/09 09:38:14;;;;;;;;;;;;;;;21.27;91.86;101766.03;5034625;28;19917;-73
2023/09/09 09:40:40;;;;;;;;;;;;;;;21.32;92.17;101764.84;5034636;28;19920;-73
2023/09/09 09:43:16;;;;;;;;;;;;;;;21.43;87.87;101765.78;5035017;28;19998;-73
2023/09/09 09:45:41;;;;;;;;;;;;;;;21.54;85.32;101773.03;5032785;28;20167;-73
2023/09/09 09:48:06;;;;;;;;;;;;;;;21.54;86.69;101762.38;5028573;28;19917;-73
2023/09/09 09:50:32;;;;;;;;;;;;;;;21.64;83.05;101771.38;5031995;28;19917;-73
2023/09/09 09:53:04;;;;;;;;;;;;;;;21.73;83.37;101764.53;5034838;28;19954;-73
2023/09/09 09:55:34;;;;;;;;;;;;;;;21.88;83.48;101767.03;5033106;28;19916;-73
2023/09/09 09:58:02;;;;;;;;;;;;;;;22.04;82.68;101764.94;5032604;28;19996;-73
2023/09/09 10:00:28;;;;;;;;;;;;;;;22.08;82.24;101760.22;5033259;28;19916;-73
2023/09/09 10:02:54;;;;;;;;;;;;;;;22.09;82.05;101765.44;5033412;28;19927;-73
2023/09/09 10:05:23;;;;;;;;;;;;;;;22.19;79.56;101755.81;5033759;28;20155;-73
2023/09/09 10:08:07;;;;;;;;;;;;;;;22.26;80.14;101766.00;5034068;28;19951;-73
2023/09/09 10:10:35;;;;;;;;;;;;;;;22.33;80.03;101757.44;5032440;28;20008;-73
2023/09/09 10:13:07;;;;;;;;;;;;;;;22.38;80.14;101752.59;5032257;28;19952;-73
2023/09/09 10:15:33;;;;;;;;;;;;;;;22.40;80.48;101750.66;5031814;28;20257;-73
2023/09/09 10:17:59;;;;;;;;;;;;;;;22.42;81.59;101750.56;5035256;28;19923;-73
2023/09/09 10:20:24;;;;;;;;;;;;;;;22.47;79.99;101750.22;5033434;28;19917;-73
2023/09/09 10:22:50;;;;;;;;;;;;;;;22.43;80.38;101755.78;5034763;28;19954;-73
2023/09/09 10:25:16;;;;;;;;;;;;;;;22.43;81.92;101755.78;5034840;28;19987;-73
2023/09/09 10:27:41;;;;;;;;;;;;;;;22.43;81.96;101753.09;5034454;28;19912;-73
2023/09/09 10:30:07;;;;;;;;;;;;;;;22.43;82.74;101747.78;5034781;28;19944;-73
2023/09/09 10:32:34;;;;;;;;;;;;;;;22.51;82.49;101752.50;5034748;28;20135;-73
2023/09/09 10:34:59;;;;;;;;;;;;;;;22.57;82.66;101751.19;5033937;28;20231;-73
2023/09/09 10:37:26;;;;;;;;;;;;;;;22.59;83.02;101750.13;5032006;28;19908;-73
2023/09/09 10:39:52;;;;;;;;;;;;;;;22.61;83.31;101741.97;5033860;28;19949;-73
2023/09/09 10:42:18;;;;;;;;;;;;;;;22.66;84.34;101741.63;5032594;28;19990;-73
2023/09/09 10:44:48;;;;;;;;;;;;;;;22.70;84.55;101751.09;5033901;28;19917;-73
2023/09/09 10:47:15;;;;;;;;;;;;;;;22.74;85.49;101750.75;5034197;28;19997;-73
2023/09/09 10:49:41;;;;;;;;;;;;;;;22.85;81.69;101747.22;5032769;28;20182;-73
2023/09/09 10:52:06;;;;;;;;;;;;;;;22.91;80.89;101748.56;5033471;28;19908;-73
2023/09/09 10:54:32;;;;;;;;;;;;;;;22.95;80.42;101745.50;5033229;28;20275;-73
2023/09/09 10:57:01;;;;;;;;;;;;;;;23.04;79.43;101749.31;5033154;28;20120;-73
2023/09/09 10:59:28;;;;;;;;;;;;;;;23.13;80.18;101747.75;5032827;28;19979;-73
2023/09/09 11:02:18;;;;;;;;;;;;;;;23.16;80.74;101744.84;5034314;28;19985;-73
2023/09/09 11:04:43;;;;;;;;;;;;;;;23.23;79.29;101750.53;5026843;28;20384;-73
2023/09/09 11:07:12;;;;;;;;;;;;;;;23.29;79.94;101752.72;5034017;28;20161;-73
2023/09/09 11:09:37;;;;;;;;;;;;;;;23.34;78.47;101745.19;5033160;28;19971;-73
2023/09/09 11:12:15;;;;;;;;;;;;;;;23.41;79.83;101750.88;5034051;28;19920;-73
2023/09/09 11:14:43;;;;;;;;;;;;;;;23.54;77.57;101746.25;5034381;28;19924;-73
2023/09/09 11:17:09;;;;;;;;;;;;;;;23.65;78.31;101737.31;5032417;28;19956;-73
2023/09/09 11:19:35;;;;;;;;;;;;;;;23.71;78.35;101743.00;5032877;28;19913;-73
2023/09/09 11:22:02;;;;;;;;;;;;;;;23.77;77.96;101744.34;5033958;28;19974;-73
2023/09/09 11:24:27;;;;;;;;;;;;;;;23.76;78.39;101742.66;5033621;28;20224;-73
2023/09/09 11:26:55;;;;;;;;;;;;;;;23.76;78.24;101740.81;5034380;28;19939;-73
2023/09/09 11:29:20;;;;;;;;;;;;;;;23.76;79.57;101732.78;5033704;28;20200;-73
2023/09/09 11:31:46;;;;;;;;;;;;;;;23.77;79.88;101731.81;5036372;28;20206;-73
2023/09/09 11:34:11;;;;;;;;;;;;;;;23.82;79.96;101733.31;5036511;28;19916;-73
2023/09/09 11:36:37;;;;;;;;;;;;;;;23.88;79.17;101738.97;5036259;28;20634;-73
2023/09/09 11:39:03;;;;;;;;;;;;;;;23.88;78.53;101733.63;5037380;28;20194;-73
2023/09/09 11:41:30;;;;;;;;;;;;;;;23.88;79.38;101733.63;5036967;28;20266;-73
2023/09/09 11:44:03;;;;;;;;;;;;;;;23.92;79.87;101735.09;5037386;28;19921;-73
2023/09/09 11:46:30;;;;;;;;;;;;;;;23.97;78.44;101733.84;5036469;28;20203;-73
2023/09/09 11:48:56;;;;;;;;;;;;;;;23.99;79.16;101731.88;5036790;28;19936;-73
2023/09/09 11:51:21;;;;;;;;;;;;;;;24.07;75.80;101729.44;5035653;28;20271;-73
2023/09/09 11:53:47;;;;;;;;;;;;;;;24.11;76.73;101736.22;5037224;28;19916;-73
2023/09/09 11:56:15;;;;;;;;;;;;;;;24.16;77.47;101734.00;5035146;28;19917;-73
2023/09/09 11:58:41;;;;;;;;;;;;;;;24.18;77.04;101724.00;5036663;28;19987;-73
2023/09/09 12:01:06;;;;;;;;;;;;;;;24.25;77.77;101732.34;5037172;28;20189;-73
2023/09/09 12:03:31;;;;;;;;;;;;;;;24.36;75.67;101734.13;5036605;28;20154;-73
2023/09/09 12:05:57;;;;;;;;;;;;;;;24.43;75.38;101727.25;5037186;28;20267;-73
2023/09/09 12:08:24;;;;;;;;;;;;;;;24.53;73.14;101726.38;5035847;28;19952;-73
2023/09/09 12:10:50;;;;;;;;;;;;;;;24.62;72.52;101724.75;5036143;28;19956;-73
2023/09/09 12:13:15;;;;;;;;;;;;;;;24.75;72.02;101726.34;5037043;28;19921;-73
2023/09/09 12:15:43;;;;;;;;;;;;;;;24.77;71.84;101719.03;5036381;28;19924;-73
2023/09/09 12:18:12;;;;;;;;;;;;;;;24.75;72.44;101718.31;5037245;28;20193;-73
2023/09/09 12:20:56;;;;;;;;;;;;;;;24.75;73.01;101715.66;5036736;28;19913;-73
2023/09/09 12:23:31;;;;;;;;;;;;;;;24.80;72.64;101711.56;5025702;28;19916;-73